createdAt,value
2019-04-04T00:01:47.925Z,40.55
2019-04-04T00:04:22.161Z,47.03
2019-04-04T00:06:57.820Z,44.60
2019-04-04T00:09:31.172Z,41.18
2019-04-04T00:12:06.118Z,42.73
2019-04-04T00:14:39.952Z,40.30
2019-04-04T00:17:12.862Z,45.05
2019-04-04T00:19:45.741Z,38.80
2019-04-04T00:22:18.649Z,42.50
2019-04-04T00:24:51.496Z,41.20
2019-04-04T00:27:24.411Z,42.90
2019-04-04T00:29:57.266Z,42.20
2019-04-04T00:32:30.152Z,38.98
2019-04-04T00:35:02.965Z,44.05
2019-04-04T00:37:36.530Z,45.17
2019-04-04T00:40:11.609Z,45.23
2019-04-04T00:42:44.006Z,44.08
2019-04-04T00:45:16.739Z,47.05
2019-04-04T00:47:50.547Z,47.65
2019-04-04T00:50:23.327Z,38.67
2019-04-04T00:52:56.134Z,44.67
2019-04-04T00:55:28.922Z,49.40
2019-04-04T00:58:01.798Z,44.23
2019-04-04T01:00:34.733Z,42.70
2019-04-04T01:03:07.449Z,42.48
2019-04-04T01:05:41.451Z,43.13
2019-04-04T01:08:14.275Z,44.20
2019-04-04T01:10:49.805Z,52.88
2019-04-04T01:13:23.309Z,44.83
2019-04-04T01:15:57.292Z,38.28
2019-04-04T01:18:31.602Z,42.30
2019-04-04T01:21:06.684Z,48.00
2019-04-04T01:23:40.969Z,44.42
2019-04-04T01:26:14.145Z,40.60
2019-04-04T01:28:47.015Z,42.88
2019-04-04T01:31:20.414Z,46.80
2019-04-04T01:33:53.217Z,46.33
2019-04-04T01:36:26.994Z,40.90
2019-04-04T01:39:00.272Z,47.50
2019-04-04T01:41:36.310Z,39.75
2019-04-04T01:44:11.318Z,37.85
2019-04-04T01:46:46.081Z,41.00
2019-04-04T01:49:19.124Z,39.50
2019-04-04T01:51:56.833Z,40.28
2019-04-04T01:54:27.820Z,43.08
2019-04-04T01:57:00.600Z,44.20
2019-04-04T01:59:33.436Z,44.98
2019-04-04T02:02:06.322Z,40.23
2019-04-04T02:04:40.163Z,48.65
2019-04-04T02:07:12.992Z,50.33
2019-04-04T02:09:47.435Z,47.43
2019-04-04T02:12:22.636Z,47.65
2019-04-04T02:14:55.518Z,45.12
2019-04-04T02:17:28.425Z,46.45
2019-04-04T02:20:01.457Z,45.60
2019-04-04T02:22:34.469Z,52.43
2019-04-04T02:25:09.418Z,52.30
2019-04-04T02:27:42.391Z,46.53
2019-04-04T02:30:16.516Z,41.50
2019-04-04T02:32:49.521Z,57.23
2019-04-04T02:35:22.325Z,49.73
2019-04-04T02:37:56.128Z,46.83
2019-04-04T02:40:29.105Z,44.08
2019-04-04T02:43:01.951Z,43.73
2019-04-04T02:45:35.671Z,42.60
2019-04-04T02:48:09.186Z,44.95
2019-04-04T02:50:41.975Z,44.88
2019-04-04T02:53:19.203Z,47.88
2019-04-04T02:55:49.564Z,47.13
2019-04-04T02:58:22.730Z,45.98
2019-04-04T03:00:59.261Z,42.48
2019-04-04T03:03:31.040Z,46.20
2019-04-04T03:06:03.810Z,53.00
2019-04-04T03:08:37.719Z,45.90
2019-04-04T03:11:13.123Z,53.05
2019-04-04T03:13:46.102Z,52.75
2019-04-04T03:16:21.343Z,50.35
2019-04-04T03:18:55.921Z,45.00
2019-04-04T03:21:28.709Z,42.33
2019-04-04T03:24:05.971Z,44.13
2019-04-04T03:26:35.912Z,59.75
2019-04-04T03:29:10.613Z,65.87
2019-04-04T03:31:43.355Z,54.75
2019-04-04T03:34:17.103Z,57.33
2019-04-04T03:36:49.886Z,52.75
2019-04-04T03:39:22.672Z,47.30
2019-04-04T03:41:56.518Z,43.78
2019-04-04T03:44:29.312Z,44.33
2019-04-04T03:47:02.061Z,46.35
2019-04-04T03:49:34.867Z,43.28
2019-04-04T03:52:11.255Z,51.23
2019-04-04T03:54:42.255Z,49.18
2019-04-04T03:57:15.057Z,49.88
2019-04-04T03:59:47.857Z,50.03
2019-04-04T04:02:23.970Z,48.40
2019-04-04T04:05:00.544Z,44.20
2019-04-04T04:07:31.208Z,43.60
2019-04-04T04:10:04.114Z,48.68
2019-04-04T04:12:36.863Z,59.08
2019-04-04T04:15:09.719Z,46.30
2019-04-04T04:17:45.233Z,48.70
2019-04-04T04:20:17.020Z,52.80
2019-04-04T04:22:50.985Z,51.28
2019-04-04T04:25:24.357Z,51.90
2019-04-04T04:27:57.651Z,57.60
2019-04-04T04:30:30.456Z,51.20
2019-04-04T04:33:03.362Z,50.17
2019-04-04T04:35:40.898Z,49.80
2019-04-04T04:38:10.764Z,50.12
2019-04-04T04:40:46.923Z,51.80
2019-04-04T04:43:18.141Z,48.30
2019-04-04T04:45:50.923Z,50.85
2019-04-04T04:48:25.932Z,46.73
2019-04-04T04:50:58.206Z,52.10
2019-04-04T04:53:30.996Z,48.83
2019-04-04T04:56:03.813Z,45.48
2019-04-04T04:58:36.628Z,49.93
2019-04-04T05:01:09.459Z,46.90
2019-04-04T05:03:42.312Z,48.87
2019-04-04T05:06:15.252Z,59.42
2019-04-04T05:08:48.091Z,52.98
2019-04-04T05:11:20.898Z,72.90
2019-04-04T05:13:53.651Z,103.07
2019-04-04T05:16:26.676Z,87.35
2019-04-04T05:18:59.446Z,72.90
2019-04-04T05:21:34.545Z,69.75
2019-04-04T05:24:06.908Z,62.88
2019-04-04T05:26:39.693Z,54.42
2019-04-04T05:29:13.987Z,51.53
2019-04-04T05:31:49.838Z,54.40
2019-04-04T05:34:21.579Z,52.70
2019-04-04T05:36:54.530Z,48.35
2019-04-04T05:39:27.458Z,54.05
2019-04-04T05:42:01.046Z,47.55
2019-04-04T05:44:34.381Z,50.28
2019-04-04T05:47:07.363Z,50.67
2019-04-04T05:49:40.206Z,47.78
2019-04-04T05:52:13.005Z,51.80
2019-04-04T05:54:45.928Z,52.15
2019-04-04T05:57:20.123Z,54.63
2019-04-04T05:59:55.920Z,50.65
2019-04-04T06:02:28.392Z,41.37
2019-04-04T06:05:01.494Z,47.50
2019-04-04T06:07:36.390Z,48.85
2019-04-04T06:10:11.806Z,43.10
2019-04-04T06:12:43.746Z,64.37
2019-04-04T06:15:16.585Z,65.15
2019-04-04T06:17:49.366Z,61.80
2019-04-04T06:20:22.286Z,50.25
2019-04-04T06:22:55.097Z,42.90
2019-04-04T06:25:34.291Z,48.00
2019-04-04T06:28:04.657Z,41.08
2019-04-04T06:31:26.936Z,47.60
2019-04-04T06:33:57.338Z,46.58
2019-04-04T06:36:30.243Z,49.10
2019-04-04T06:39:04.695Z,34.88
2019-04-04T06:41:37.732Z,41.02
2019-04-04T06:44:12.753Z,37.78
2019-04-04T06:46:45.162Z,42.05
2019-04-04T06:49:17.987Z,38.15
2019-04-04T06:51:51.835Z,42.93
2019-04-04T06:54:25.636Z,41.70
2019-04-04T06:56:59.404Z,37.93
2019-04-04T06:59:33.039Z,36.38
2019-04-04T07:02:06.240Z,35.50
2019-04-04T07:04:39.148Z,39.98
2019-04-04T07:07:12.728Z,38.78
2019-04-04T07:09:46.029Z,35.20
2019-04-04T07:12:24.199Z,41.30
2019-04-04T07:14:53.513Z,46.73
2019-04-04T07:17:26.498Z,34.15
2019-04-04T07:19:59.268Z,41.20
2019-04-04T07:22:32.166Z,38.83
2019-04-04T07:25:06.636Z,38.48
2019-04-04T07:27:40.754Z,32.35
2019-04-04T07:30:15.474Z,41.33
2019-04-04T07:32:48.581Z,33.45
2019-04-04T07:35:21.724Z,42.30
2019-04-04T07:37:57.465Z,39.42
2019-04-04T07:40:29.164Z,36.60
2019-04-04T07:43:02.101Z,29.92
2019-04-04T07:45:34.995Z,32.33
2019-04-04T07:48:07.822Z,33.70
2019-04-04T07:50:40.666Z,30.85
2019-04-04T07:53:13.624Z,27.62
2019-04-04T07:55:46.581Z,32.73
2019-04-04T07:58:19.548Z,26.30
2019-04-04T08:00:52.341Z,41.92
2019-04-04T08:03:25.191Z,28.70
2019-04-04T08:05:58.007Z,30.68
2019-04-04T08:08:30.960Z,31.60
2019-04-04T08:11:03.799Z,33.33
2019-04-04T08:13:36.680Z,31.52
2019-04-04T08:16:09.473Z,31.65
2019-04-04T08:18:42.384Z,35.33
2019-04-04T08:21:15.211Z,29.20
2019-04-04T08:23:48.969Z,33.08
2019-04-04T08:26:21.930Z,26.15
2019-04-04T08:28:54.860Z,25.40
2019-04-04T08:31:27.822Z,34.75
2019-04-04T08:34:00.612Z,31.05
2019-04-04T08:36:35.807Z,29.32
2019-04-04T08:39:12.191Z,31.87
2019-04-04T08:41:45.085Z,32.25
2019-04-04T08:44:17.872Z,34.25
2019-04-04T08:46:51.411Z,30.95
2019-04-04T08:49:24.221Z,33.95
2019-04-04T08:51:56.993Z,28.45
2019-04-04T08:54:29.914Z,38.78
2019-04-04T08:57:02.743Z,24.25
2019-04-04T08:59:35.694Z,30.80
2019-04-04T09:02:08.571Z,32.85
2019-04-04T09:04:41.433Z,32.38
2019-04-04T09:07:14.244Z,32.93
2019-04-04T09:09:47.097Z,27.40
2019-04-04T09:12:21.052Z,32.28
2019-04-04T09:14:53.820Z,25.15
2019-04-04T09:17:26.632Z,32.53
2019-04-04T09:19:59.405Z,30.17
2019-04-04T09:22:32.269Z,19.67
2019-04-04T09:25:05.446Z,50.25
2019-04-04T09:27:38.324Z,22.52
2019-04-04T09:30:12.693Z,19.02
2019-04-04T09:32:45.677Z,20.55
2019-04-04T09:35:18.479Z,18.37
2019-04-04T09:37:51.309Z,23.38
2019-04-04T09:40:24.184Z,25.65
2019-04-04T09:42:57.308Z,26.68
2019-04-04T09:45:30.071Z,25.27
2019-04-04T09:48:03.408Z,24.00
2019-04-04T09:50:36.627Z,29.75
2019-04-04T09:53:10.402Z,25.70
2019-04-04T09:55:43.168Z,19.27
2019-04-04T09:58:16.130Z,23.25
2019-04-04T10:00:50.955Z,60.83
2019-04-04T10:03:24.803Z,21.20
2019-04-04T10:05:57.693Z,28.50
2019-04-04T10:08:30.496Z,24.72
2019-04-04T10:11:03.341Z,18.07
2019-04-04T10:13:36.120Z,23.90
2019-04-04T10:16:08.857Z,22.42
2019-04-04T10:18:41.663Z,23.85
2019-04-04T10:21:14.602Z,27.45
2019-04-04T10:23:47.422Z,18.25
2019-04-04T10:26:21.160Z,23.85
2019-04-04T10:28:53.922Z,27.67
2019-04-04T10:31:26.765Z,32.08
2019-04-04T10:33:59.595Z,22.85
2019-04-04T10:36:32.469Z,16.32
2019-04-04T10:39:08.624Z,21.20
2019-04-04T10:41:41.910Z,26.12
2019-04-04T10:44:14.841Z,24.12
2019-04-04T10:46:47.885Z,32.10
2019-04-04T10:49:20.655Z,17.48
2019-04-04T10:51:53.488Z,34.85
2019-04-04T10:54:26.332Z,18.95
2019-04-04T10:56:59.181Z,31.75
2019-04-04T10:59:32.264Z,20.85
2019-04-04T11:02:05.230Z,27.05
2019-04-04T11:04:38.362Z,10.55
2019-04-04T11:07:11.595Z,17.60
2019-04-04T11:09:44.637Z,21.52
2019-04-04T11:12:17.624Z,16.75
2019-04-04T11:14:50.464Z,49.05
2019-04-04T11:17:23.444Z,29.48
2019-04-04T11:19:56.330Z,16.57
2019-04-04T11:22:29.163Z,25.20
2019-04-04T11:25:02.209Z,33.28
2019-04-04T11:27:35.214Z,22.02
2019-04-04T11:30:10.403Z,20.97
2019-04-04T11:32:43.218Z,19.40
2019-04-04T11:35:16.119Z,19.20
2019-04-04T11:37:48.956Z,33.55
2019-04-04T11:40:21.952Z,29.18
2019-04-04T11:42:54.783Z,19.75
2019-04-04T11:45:27.632Z,26.07
2019-04-04T11:48:00.387Z,20.70
2019-04-04T11:50:33.438Z,17.52
2019-04-04T11:53:06.212Z,31.27
2019-04-04T11:55:39.660Z,22.10
2019-04-04T11:58:12.594Z,14.45
2019-04-04T12:00:47.386Z,21.62
2019-04-04T12:03:20.278Z,19.25
2019-04-04T12:05:53.118Z,14.18
2019-04-04T12:08:25.986Z,27.87
2019-04-04T12:10:58.808Z,14.70
2019-04-04T12:13:31.747Z,26.17
2019-04-04T12:16:04.605Z,23.32
2019-04-04T12:18:37.392Z,21.48
2019-04-04T12:21:10.252Z,26.42
2019-04-04T12:23:43.070Z,32.50
2019-04-04T12:26:16.002Z,21.10
2019-04-04T12:28:48.827Z,23.05
2019-04-04T12:31:21.683Z,33.95
2019-04-04T12:33:54.709Z,21.37
2019-04-04T12:36:27.622Z,35.78
2019-04-04T12:39:00.519Z,26.07
2019-04-04T12:41:35.017Z,33.18
2019-04-04T12:44:07.954Z,28.73
2019-04-04T12:46:42.487Z,25.80
2019-04-04T12:49:15.592Z,30.57
2019-04-04T12:51:48.654Z,22.07
2019-04-04T12:54:21.499Z,20.65
2019-04-04T12:56:54.319Z,19.15
2019-04-04T12:59:27.108Z,30.10
2019-04-04T13:01:59.911Z,29.48
2019-04-04T13:04:32.713Z,30.92
2019-04-04T13:07:06.028Z,29.92
2019-04-04T13:09:38.845Z,19.23
2019-04-04T13:12:11.717Z,27.93
2019-04-04T13:14:44.582Z,29.20
2019-04-04T13:17:17.469Z,40.58
2019-04-04T13:19:50.314Z,25.97
2019-04-04T13:22:23.169Z,23.40
2019-04-04T13:24:55.957Z,19.52
2019-04-04T13:27:28.868Z,40.70
2019-04-04T13:30:01.656Z,44.67
2019-04-04T13:32:35.539Z,27.42
2019-04-04T13:35:08.859Z,26.73
2019-04-04T13:37:41.622Z,22.93
2019-04-04T13:40:14.443Z,23.80
2019-04-04T13:42:47.362Z,21.57
2019-04-04T13:45:20.259Z,20.92
2019-04-04T13:47:54.268Z,16.97
2019-04-04T13:50:27.233Z,18.48
2019-04-04T13:53:00.537Z,21.55
2019-04-04T13:55:33.419Z,25.08
2019-04-04T13:58:07.362Z,32.75
2019-04-04T14:00:40.203Z,26.65
2019-04-04T14:03:13.145Z,17.52
2019-04-04T14:05:46.259Z,27.17
2019-04-04T14:08:19.163Z,21.52
2019-04-04T14:10:58.063Z,19.90
2019-04-04T14:13:26.526Z,21.20
2019-04-04T14:15:59.336Z,13.30
2019-04-04T14:18:39.542Z,15.68
2019-04-04T14:21:06.851Z,29.45
2019-04-04T14:23:39.720Z,18.17
2019-04-04T14:26:12.543Z,17.12
2019-04-04T14:28:46.321Z,26.82
2019-04-04T14:31:19.342Z,13.88
2019-04-04T14:33:52.621Z,21.33
2019-04-04T14:36:26.233Z,27.73
2019-04-04T14:38:59.246Z,20.68
2019-04-04T14:41:35.787Z,26.05
2019-04-04T14:44:08.631Z,26.33
2019-04-04T14:46:41.636Z,17.48
2019-04-04T14:49:15.170Z,16.27
2019-04-04T14:51:48.094Z,16.05
2019-04-04T14:54:21.032Z,12.07
2019-04-04T14:56:53.892Z,19.12
2019-04-04T14:59:27.026Z,25.72
2019-04-04T15:02:00.140Z,14.05
2019-04-04T15:04:34.991Z,12.47
2019-04-04T15:07:11.985Z,16.50
2019-04-04T15:09:44.970Z,14.28
2019-04-04T15:12:18.339Z,11.97
2019-04-04T15:14:51.486Z,23.32
2019-04-04T15:17:24.280Z,16.48
2019-04-04T15:19:57.145Z,15.03
2019-04-04T15:22:31.924Z,13.18
2019-04-04T15:25:04.901Z,19.32
2019-04-04T15:27:39.337Z,16.00
2019-04-04T15:30:16.266Z,14.40
2019-04-04T15:32:49.214Z,16.20
2019-04-04T15:35:22.074Z,13.75
2019-04-04T15:37:55.214Z,12.60
2019-04-04T15:40:28.122Z,9.53
2019-04-04T15:43:00.953Z,12.68
2019-04-04T15:45:34.083Z,13.38
2019-04-04T15:48:06.881Z,10.75
2019-04-04T15:50:39.663Z,18.92
2019-04-04T15:53:12.479Z,14.98
2019-04-04T15:55:45.426Z,11.68
2019-04-04T15:58:18.305Z,13.53
2019-04-04T16:00:52.335Z,21.17
2019-04-04T16:03:25.500Z,18.37
2019-04-04T16:05:58.274Z,12.70
2019-04-04T16:08:33.306Z,26.97
2019-04-04T16:11:06.488Z,15.10
2019-04-04T16:13:39.383Z,13.65
2019-04-04T16:16:12.162Z,12.20
2019-04-04T16:18:46.044Z,21.87
2019-04-04T16:21:19.862Z,17.05
2019-04-04T16:23:52.664Z,14.83
2019-04-04T16:26:25.421Z,20.60
2019-04-04T16:28:58.696Z,26.07
2019-04-04T16:31:34.364Z,13.93
2019-04-04T16:34:06.117Z,24.40
2019-04-04T16:36:38.909Z,19.45
2019-04-04T16:39:11.719Z,16.00
2019-04-04T16:41:44.593Z,14.87
2019-04-04T16:44:17.402Z,15.85
2019-04-04T16:46:50.254Z,15.72
2019-04-04T16:49:23.054Z,14.78
2019-04-04T16:51:57.133Z,18.90
2019-04-04T16:54:29.973Z,18.57
2019-04-04T16:57:03.765Z,14.25
2019-04-04T16:59:36.624Z,17.62
2019-04-04T17:02:09.752Z,13.90
2019-04-04T17:04:42.657Z,24.20
2019-04-04T17:07:15.584Z,27.77
2019-04-04T17:09:48.917Z,26.05
2019-04-04T17:12:21.769Z,29.40
2019-04-04T17:14:54.650Z,33.58
2019-04-04T17:17:27.591Z,17.77
2019-04-04T17:20:00.769Z,17.90
2019-04-04T17:22:33.858Z,23.80
2019-04-04T17:25:07.923Z,16.85
2019-04-04T17:27:41.137Z,18.23
2019-04-04T17:30:15.048Z,15.13
2019-04-04T17:32:49.608Z,18.82
2019-04-04T17:35:22.796Z,13.35
2019-04-04T17:37:55.650Z,17.75
2019-04-04T17:40:28.453Z,27.30
2019-04-04T17:43:02.272Z,21.80
2019-04-04T17:45:35.640Z,22.10
2019-04-04T17:48:08.567Z,21.52
2019-04-04T17:50:41.628Z,19.75
2019-04-04T17:53:15.510Z,19.40
2019-04-04T17:55:49.958Z,22.27
2019-04-04T17:58:23.001Z,26.17
2019-04-04T18:00:56.282Z,20.65
2019-04-04T18:03:29.342Z,26.07
2019-04-04T18:06:02.135Z,14.90
2019-04-04T18:08:35.070Z,16.77
2019-04-04T18:11:08.139Z,16.75
2019-04-04T18:13:41.068Z,15.15
2019-04-04T18:16:14.038Z,16.55
2019-04-04T18:18:46.817Z,20.60
2019-04-04T18:21:19.604Z,11.08
2019-04-04T18:23:52.478Z,17.23
2019-04-04T18:26:25.355Z,35.05
2019-04-04T18:28:58.236Z,21.05
2019-04-04T18:31:31.132Z,23.12
2019-04-04T18:34:04.258Z,36.13
2019-04-04T18:36:37.543Z,35.55
2019-04-04T18:39:11.458Z,34.65
2019-04-04T18:41:44.403Z,27.02
2019-04-04T18:44:17.352Z,41.68
2019-04-04T18:46:50.168Z,54.27
2019-04-04T18:49:23.037Z,44.73
2019-04-04T18:51:55.957Z,35.10
2019-04-04T18:54:28.792Z,44.25
2019-04-04T18:57:01.889Z,59.58
2019-04-04T18:59:34.819Z,62.85
2019-04-04T19:02:07.638Z,97.70
2019-04-04T19:04:40.687Z,97.53
2019-04-04T19:07:13.574Z,92.37
2019-04-04T19:09:46.417Z,70.87
2019-04-04T19:12:19.263Z,68.22
2019-04-04T19:14:52.082Z,60.70
2019-04-04T19:17:24.929Z,56.23
2019-04-04T19:19:57.811Z,86.63
2019-04-04T19:22:31.266Z,83.80
2019-04-04T19:25:04.243Z,85.50
2019-04-04T19:27:37.404Z,91.60
2019-04-04T19:30:11.729Z,85.65
2019-04-04T19:32:44.627Z,63.50
2019-04-04T19:35:18.458Z,62.65
2019-04-04T19:38:00.043Z,50.15
2019-04-04T19:40:25.972Z,41.55
2019-04-04T19:42:58.821Z,53.70
2019-04-04T19:45:31.707Z,46.33
2019-04-04T19:48:04.703Z,66.02
2019-04-04T19:50:39.152Z,74.42
2019-04-04T19:53:12.356Z,64.20
2019-04-04T19:55:45.360Z,64.60
2019-04-04T19:58:18.222Z,66.37
2019-04-04T20:00:51.505Z,54.67
2019-04-04T20:03:24.350Z,56.92
2019-04-04T20:05:57.238Z,54.98
2019-04-04T20:08:30.109Z,42.10
2019-04-04T20:11:02.982Z,54.93
2019-04-04T20:13:35.889Z,57.65
2019-04-04T20:16:08.874Z,58.83
2019-04-04T20:18:41.827Z,60.88
2019-04-04T20:21:14.845Z,85.07
2019-04-04T20:23:47.678Z,75.70
2019-04-04T20:26:20.557Z,90.17
2019-04-04T20:28:53.440Z,79.27
2019-04-04T20:31:26.644Z,65.75
2019-04-04T20:34:02.374Z,75.45
2019-04-04T20:36:33.972Z,77.82
2019-04-04T20:39:09.387Z,75.42
2019-04-04T20:41:44.611Z,68.75
2019-04-04T20:44:19.897Z,73.12
2019-04-04T20:46:52.812Z,63.25
2019-04-04T20:49:25.671Z,61.02
2019-04-04T20:51:58.568Z,59.90
2019-04-04T20:54:31.355Z,58.65
2019-04-04T20:57:04.219Z,64.82
2019-04-04T20:59:36.984Z,55.05
2019-04-04T21:02:09.752Z,52.88
2019-04-04T21:04:43.709Z,63.58
2019-04-04T21:07:16.497Z,62.98
2019-04-04T21:09:49.296Z,55.60
2019-04-04T21:12:22.081Z,55.28
2019-04-04T21:14:56.191Z,48.75
2019-04-04T21:17:29.145Z,51.88
2019-04-04T21:20:05.723Z,51.08
2019-04-04T21:22:38.654Z,54.98
2019-04-04T21:25:11.841Z,59.63
2019-04-04T21:27:44.622Z,65.28
2019-04-04T21:30:18.408Z,55.85
2019-04-04T21:32:51.378Z,61.18
2019-04-04T21:35:24.164Z,61.80
2019-04-04T21:37:56.944Z,46.77
2019-04-04T21:40:29.768Z,51.60
2019-04-04T21:43:02.751Z,47.58
2019-04-04T21:45:35.550Z,52.33
2019-04-04T21:48:08.327Z,56.13
2019-04-04T21:50:41.117Z,47.35
2019-04-04T21:53:13.923Z,59.27
2019-04-04T21:55:46.727Z,56.45
2019-04-04T21:58:20.475Z,60.55
2019-04-04T22:00:55.010Z,56.95
2019-04-04T22:03:28.060Z,62.48
2019-04-04T22:06:00.908Z,58.23
2019-04-04T22:08:33.767Z,56.05
2019-04-04T22:11:06.568Z,65.50
2019-04-04T22:13:39.332Z,61.33
2019-04-04T22:16:12.188Z,67.47
2019-04-04T22:18:45.048Z,55.98
2019-04-04T22:21:17.855Z,58.50
2019-04-04T22:23:50.751Z,48.68
2019-04-04T22:26:23.859Z,54.93
2019-04-04T22:28:56.660Z,82.00
2019-04-04T22:31:29.506Z,101.35
2019-04-04T22:34:02.439Z,62.00
2019-04-04T22:36:35.339Z,52.27
2019-04-04T22:39:09.552Z,47.43
2019-04-04T22:41:42.418Z,47.67
2019-04-04T22:44:15.421Z,46.15
2019-04-04T22:46:49.730Z,50.30
2019-04-04T22:49:22.459Z,51.85
2019-04-04T22:51:55.375Z,46.68
2019-04-04T22:54:28.164Z,47.08
2019-04-04T22:57:01.032Z,45.30
2019-04-04T22:59:33.977Z,44.83
2019-04-04T23:02:06.841Z,43.10
2019-04-04T23:04:39.710Z,45.80
2019-04-04T23:07:12.625Z,61.28
2019-04-04T23:09:45.585Z,57.78
2019-04-04T23:12:18.430Z,51.55
2019-04-04T23:14:51.385Z,60.03
2019-04-04T23:17:24.170Z,43.65
2019-04-04T23:19:57.335Z,42.17
2019-04-04T23:22:30.171Z,47.13
2019-04-04T23:25:03.170Z,54.30
2019-04-04T23:27:36.180Z,46.20
2019-04-04T23:30:09.480Z,43.63
2019-04-04T23:32:42.254Z,49.45
2019-04-04T23:35:16.655Z,49.93
2019-04-04T23:37:49.822Z,39.42
2019-04-04T23:40:22.629Z,50.25
2019-04-04T23:42:55.455Z,42.23
2019-04-04T23:45:28.469Z,46.08
2019-04-04T23:48:01.326Z,50.05
2019-04-04T23:50:34.428Z,38.00
2019-04-04T23:53:08.564Z,47.13
2019-04-04T23:55:41.309Z,44.42
2019-04-04T23:58:12.827Z,46.13
